createdAt,value
2023-02-22T00:00:46.911Z,89586.00
2023-02-22T00:03:16.644Z,89585.75
2023-02-22T00:05:46.158Z,89579.16
2023-02-22T00:08:17.830Z,89579.47
2023-02-22T00:10:45.076Z,89584.19
2023-02-22T00:13:14.818Z,89577.22
2023-02-22T00:15:41.689Z,89576.56
2023-02-22T00:18:09.549Z,89582.00
2023-02-22T00:20:37.001Z,89568.34
2023-02-22T00:23:04.020Z,89572.94
2023-02-22T00:25:30.994Z,89562.59
2023-02-22T00:27:57.924Z,89557.94
2023-02-22T00:30:27.376Z,89554.41
2023-02-22T00:32:56.818Z,89557.81
2023-02-22T00:35:26.288Z,89553.63
2023-02-22T00:37:55.960Z,89551.06
2023-02-22T00:40:25.554Z,89545.66
2023-02-22T00:42:52.969Z,89550.25
2023-02-22T00:45:24.573Z,89541.59
2023-02-22T00:47:52.150Z,89543.34
2023-02-22T00:50:19.608Z,89548.38
2023-02-22T00:52:47.428Z,89544.59
2023-02-22T00:55:22.011Z,89553.31
2023-02-22T00:57:48.998Z,89556.91
2023-02-22T01:00:42.616Z,89534.66
2023-02-22T01:03:11.593Z,89544.53
2023-02-22T01:05:39.110Z,89538.31
2023-02-22T01:08:08.425Z,89538.91
2023-02-22T01:10:36.548Z,89531.38
2023-02-22T01:13:04.884Z,89531.16
2023-02-22T01:15:31.908Z,89537.44
2023-02-22T01:17:59.845Z,89530.59
2023-02-22T01:20:28.060Z,89529.63
2023-02-22T01:22:56.955Z,89522.66
2023-02-22T01:25:26.973Z,89522.75
2023-02-22T01:27:54.435Z,89522.75
2023-02-22T01:30:24.452Z,89527.94
2023-02-22T01:32:52.038Z,89528.66
2023-02-22T01:35:23.208Z,89529.63
2023-02-22T01:37:50.512Z,89521.28
2023-02-22T01:40:39.669Z,89518.47
2023-02-22T01:43:26.347Z,89519.31
2023-02-22T01:46:07.765Z,89516.31
2023-02-22T01:49:03.248Z,89512.38
2023-02-22T01:51:34.283Z,89518.72
2023-02-22T01:54:06.913Z,89508.19
2023-02-22T01:56:38.370Z,89526.78
2023-02-22T01:59:10.746Z,89519.22
2023-02-22T02:01:39.838Z,89507.56
2023-02-22T02:04:12.975Z,89517.84
2023-02-22T02:06:40.239Z,89514.06
2023-02-22T02:09:45.053Z,89515.53
2023-02-22T02:12:14.789Z,89506.91
2023-02-22T02:14:43.250Z,89517.72
2023-02-22T02:17:13.726Z,89505.63
2023-02-22T02:20:08.264Z,89517.63
2023-02-22T02:22:49.312Z,89516.84
2023-02-22T02:25:49.717Z,89515.94
2023-02-22T02:28:33.022Z,89522.25
2023-02-22T02:31:27.858Z,89512.53
2023-02-22T02:34:04.512Z,89515.78
2023-02-22T02:36:52.156Z,89519.25
2023-02-22T02:39:46.234Z,89509.22
2023-02-22T02:42:18.601Z,89514.38
2023-02-22T02:45:12.218Z,89515.22
2023-02-22T02:47:45.740Z,89520.78
2023-02-22T02:50:15.349Z,89513.75
2023-02-22T02:52:44.696Z,89512.94
2023-02-22T02:55:12.450Z,89518.97
2023-02-22T02:57:39.437Z,89510.03
2023-02-22T03:00:08.198Z,89517.00
2023-02-22T03:02:37.689Z,89514.47
2023-02-22T03:05:40.005Z,89515.94
2023-02-22T03:08:17.738Z,89517.00
2023-02-22T03:11:05.429Z,89519.19
2023-02-22T03:14:01.369Z,89525.72
2023-02-22T03:16:50.226Z,89519.31
2023-02-22T03:19:38.650Z,89524.03
2023-02-22T03:22:31.404Z,89529.81
2023-02-22T03:25:14.361Z,89528.03
2023-02-22T03:27:47.554Z,89534.84
2023-02-22T03:30:22.605Z,89533.38
2023-02-22T03:32:57.490Z,89528.19
2023-02-22T03:35:28.483Z,89532.72
2023-02-22T03:37:59.165Z,89534.19
2023-02-22T03:40:33.777Z,89532.63
2023-02-22T03:43:36.966Z,89537.06
2023-02-22T03:46:05.792Z,89540.75
2023-02-22T03:48:38.441Z,89540.00
2023-02-22T03:51:06.126Z,89536.66
2023-02-22T03:53:34.893Z,89540.75
2023-02-22T03:56:05.020Z,89536.31
2023-02-22T03:58:34.234Z,89543.66
2023-02-22T04:01:01.113Z,89544.09
2023-02-22T04:03:28.153Z,89545.66
2023-02-22T04:05:55.032Z,89543.28
2023-02-22T04:08:21.861Z,89552.13
2023-02-22T04:10:48.825Z,89548.94
2023-02-22T04:13:15.676Z,89547.69
2023-02-22T04:15:42.749Z,89540.63
2023-02-22T04:18:13.156Z,89546.34
2023-02-22T04:20:40.012Z,89541.69
2023-02-22T04:23:06.947Z,89540.13
2023-02-22T04:25:33.980Z,89527.09
2023-02-22T04:28:00.846Z,89542.34
2023-02-22T04:30:27.737Z,89547.97
2023-02-22T04:32:54.642Z,89549.44
2023-02-22T04:35:21.483Z,89551.72
2023-02-22T04:37:48.290Z,89554.06
2023-02-22T04:40:16.845Z,89553.88
2023-02-22T04:42:43.742Z,89547.69
2023-02-22T04:45:11.300Z,89546.72
2023-02-22T04:47:38.280Z,89554.06
2023-02-22T04:50:08.597Z,89564.66
2023-02-22T04:52:35.733Z,89557.59
2023-02-22T04:55:02.879Z,89563.69
2023-02-22T04:57:30.166Z,89568.81
2023-02-22T04:59:57.260Z,89550.00
2023-02-22T05:02:24.368Z,89553.34
2023-02-22T05:04:51.320Z,89545.13
2023-02-22T05:07:18.242Z,89560.16
2023-02-22T05:09:47.947Z,89567.34
2023-02-22T05:12:15.505Z,89566.88
2023-02-22T05:14:42.351Z,89566.63
2023-02-22T05:17:09.404Z,89561.03
2023-02-22T05:19:36.374Z,89557.75
2023-02-22T05:22:03.249Z,89573.63
2023-02-22T05:24:30.273Z,89570.25
2023-02-22T05:26:57.122Z,89569.69
2023-02-22T05:29:24.046Z,89578.31
2023-02-22T05:31:51.038Z,89582.22
2023-02-22T05:34:18.014Z,89587.28
2023-02-22T05:36:45.049Z,89584.22
2023-02-22T05:39:12.205Z,89584.69
2023-02-22T05:41:39.062Z,89584.41
2023-02-22T05:44:06.017Z,89584.53
2023-02-22T05:46:33.384Z,89593.94
2023-02-22T05:49:00.267Z,89599.78
2023-02-22T05:51:27.254Z,89602.13
2023-02-22T05:53:54.312Z,89600.25
2023-02-22T05:56:38.104Z,89606.13
2023-02-22T05:59:05.074Z,89600.09
2023-02-22T06:01:32.006Z,89602.88
2023-02-22T06:03:58.809Z,89610.09
2023-02-22T06:06:25.678Z,89604.38
2023-02-22T06:08:52.514Z,89616.19
2023-02-22T06:11:19.649Z,89602.63
2023-02-22T06:13:51.480Z,89604.47
2023-02-22T06:16:18.821Z,89607.50
2023-02-22T06:18:45.728Z,89602.25
2023-02-22T06:21:12.679Z,89611.75
2023-02-22T06:23:39.568Z,89609.44
2023-02-22T06:26:06.639Z,89608.72
2023-02-22T06:28:33.638Z,89605.69
2023-02-22T06:31:00.439Z,89602.75
2023-02-22T06:33:27.323Z,89599.97
2023-02-22T06:35:54.414Z,89612.38
2023-02-22T06:38:23.424Z,89611.22
2023-02-22T06:40:50.581Z,89610.78
2023-02-22T06:43:17.756Z,89609.16
2023-02-22T06:45:44.664Z,89603.78
2023-02-22T06:48:11.521Z,89606.28
2023-02-22T06:50:38.458Z,89616.25
2023-02-22T06:53:05.492Z,89601.44
2023-02-22T06:55:34.508Z,89600.56
2023-02-22T06:58:02.496Z,89600.06
2023-02-22T07:00:30.812Z,89606.81
2023-02-22T07:02:58.337Z,89603.72
2023-02-22T07:05:27.486Z,89604.63
2023-02-22T07:07:56.319Z,89600.94
2023-02-22T07:10:27.107Z,89599.16
2023-02-22T07:12:54.369Z,89594.78
2023-02-22T07:15:22.911Z,89589.66
2023-02-22T07:17:50.569Z,89592.25
2023-02-22T07:20:18.781Z,89588.75
2023-02-22T07:22:45.669Z,89591.72
2023-02-22T07:25:12.755Z,89591.00
2023-02-22T07:27:41.369Z,89597.31
2023-02-22T07:30:20.068Z,89578.59
2023-02-22T07:32:47.973Z,89587.09
2023-02-22T07:35:32.465Z,89585.28
2023-02-22T07:37:59.767Z,89580.41
2023-02-22T07:40:27.309Z,89580.22
2023-02-22T07:42:59.405Z,89576.44
2023-02-22T07:45:31.760Z,89569.19
2023-02-22T07:47:59.552Z,89573.50
2023-02-22T07:50:28.497Z,89575.81
2023-02-22T07:52:56.480Z,89571.09
2023-02-22T07:55:26.316Z,89574.09
2023-02-22T07:57:55.655Z,89570.41
2023-02-22T08:00:31.511Z,89563.34
2023-02-22T08:03:01.284Z,89560.06
2023-02-22T08:05:29.992Z,89561.94
2023-02-22T08:07:57.363Z,89562.03
2023-02-22T08:10:26.663Z,89566.53
2023-02-22T08:12:54.328Z,89565.44
2023-02-22T08:15:41.891Z,89558.09
2023-02-22T08:18:13.535Z,89562.28
2023-02-22T08:20:42.642Z,89559.94
2023-02-22T08:23:11.392Z,89570.94
2023-02-22T08:25:38.604Z,89565.84
2023-02-22T08:28:09.334Z,89564.44
2023-02-22T08:30:39.979Z,89573.28
2023-02-22T08:33:07.261Z,89568.69
2023-02-22T08:35:34.595Z,89563.84
2023-02-22T08:38:04.458Z,89557.69
2023-02-22T08:40:35.268Z,89550.81
2023-02-22T08:43:02.796Z,89556.56
2023-02-22T08:45:29.795Z,89547.97
2023-02-22T08:47:56.815Z,89548.50
2023-02-22T08:50:31.825Z,89552.31
2023-02-22T08:53:00.410Z,89545.94
2023-02-22T08:55:29.701Z,89550.50
2023-02-22T08:57:56.487Z,89534.13
2023-02-22T09:00:24.363Z,89546.69
2023-02-22T09:02:52.399Z,89543.09
2023-02-22T09:05:20.636Z,89548.25
2023-02-22T09:07:47.943Z,89533.47
2023-02-22T09:10:21.278Z,89532.66
2023-02-22T09:12:48.143Z,89541.81
2023-02-22T09:15:15.457Z,89536.13
2023-02-22T09:17:42.459Z,89539.31
2023-02-22T09:20:10.654Z,89539.00
2023-02-22T09:22:37.585Z,89533.75
2023-02-22T09:25:16.335Z,89534.59
2023-02-22T09:27:44.297Z,89528.00
2023-02-22T09:30:29.465Z,89522.50
2023-02-22T09:33:00.182Z,89523.34
2023-02-22T09:35:27.767Z,89523.34
2023-02-22T09:37:56.657Z,89513.84
2023-02-22T09:40:24.924Z,89512.28
2023-02-22T09:43:15.879Z,89510.19
2023-02-22T09:45:51.978Z,89502.19
2023-02-22T09:48:22.279Z,89498.13
2023-02-22T09:50:51.294Z,89496.25
2023-02-22T09:53:39.684Z,89501.53
2023-02-22T09:56:13.337Z,89487.00
2023-02-22T09:58:44.940Z,89496.19
2023-02-22T10:01:40.145Z,89478.66
2023-02-22T10:04:39.251Z,89484.41
2023-02-22T10:07:15.915Z,89473.06
2023-02-22T10:09:45.537Z,89467.84
2023-02-22T10:12:36.023Z,89463.31
2023-02-22T10:15:39.843Z,89456.22
2023-02-22T10:19:03.863Z,89449.16
2023-02-22T10:22:00.233Z,89456.75
2023-02-22T10:24:45.945Z,89450.84
2023-02-22T10:27:37.813Z,89451.00
2023-02-22T10:30:25.876Z,89436.72
2023-02-22T10:33:15.883Z,89432.59
2023-02-22T10:35:47.243Z,89439.44
2023-02-22T10:38:19.819Z,89425.06
2023-02-22T10:40:55.610Z,89429.91
2023-02-22T10:43:22.965Z,89427.88
2023-02-22T10:45:57.397Z,89423.44
2023-02-22T10:48:26.610Z,89420.09
2023-02-22T10:51:00.275Z,89416.38
2023-02-22T10:53:27.591Z,89416.56
2023-02-22T10:56:19.677Z,89413.22
2023-02-22T10:58:57.996Z,89408.00
2023-02-22T11:01:32.959Z,89401.47
2023-02-22T11:04:12.550Z,89396.94
2023-02-22T11:06:42.607Z,89398.84
2023-02-22T11:09:22.749Z,89386.97
2023-02-22T11:12:07.171Z,89388.63
2023-02-22T11:14:34.019Z,89389.34
2023-02-22T11:17:06.700Z,89386.00
2023-02-22T11:19:34.203Z,89385.00
2023-02-22T11:22:21.854Z,89382.53
2023-02-22T11:27:33.801Z,89380.38
2023-02-22T11:30:25.471Z,89382.59
2023-02-22T11:33:00.100Z,89374.03
2023-02-22T11:35:32.444Z,89369.28
2023-02-22T11:38:19.395Z,89373.69
2023-02-22T11:40:46.303Z,89365.41
2023-02-22T11:43:18.834Z,89368.53
2023-02-22T11:46:07.041Z,89377.28
2023-02-22T11:48:37.404Z,89364.44
2023-02-22T11:51:08.754Z,89361.03
2023-02-22T11:54:18.068Z,89354.75
2023-02-22T11:56:50.584Z,89362.25
2023-02-22T11:59:17.305Z,89363.41
2023-02-22T12:01:56.840Z,89364.84
2023-02-22T12:04:51.808Z,89356.66
2023-02-22T12:08:13.791Z,89352.56
2023-02-22T12:11:04.988Z,89357.38
2023-02-22T12:13:59.731Z,89352.81
2023-02-22T12:16:37.854Z,89354.25
2023-02-22T12:19:40.195Z,89344.00
2023-02-22T12:22:12.760Z,89345.47
2023-02-22T12:24:48.880Z,89360.78
2023-02-22T12:27:25.599Z,89356.63
2023-02-22T12:30:01.461Z,89346.72
2023-02-22T12:32:46.503Z,89354.19
2023-02-22T12:35:26.690Z,89352.22
2023-02-22T12:38:06.483Z,89360.03
2023-02-22T12:41:01.748Z,89354.47
2023-02-22T12:44:01.352Z,89345.00
2023-02-22T12:46:31.965Z,89351.31
2023-02-22T12:49:10.206Z,89353.66
2023-02-22T12:51:46.262Z,89349.53
2023-02-22T12:54:44.822Z,89352.47
2023-02-22T12:57:23.936Z,89361.47
2023-02-22T12:59:56.256Z,89344.75
2023-02-22T13:02:31.387Z,89355.69
2023-02-22T13:04:58.620Z,89341.06
2023-02-22T13:08:02.091Z,89352.22
2023-02-22T13:10:31.929Z,89361.34
2023-02-22T13:13:09.062Z,89358.56
2023-02-22T13:15:53.943Z,89347.44
2023-02-22T13:18:26.739Z,89356.22
2023-02-22T13:21:19.853Z,89348.53
2023-02-22T13:24:05.327Z,89356.28
2023-02-22T13:26:42.445Z,89353.13
2023-02-22T13:29:18.880Z,89357.25
2023-02-22T13:31:45.732Z,89353.88
2023-02-22T13:34:31.151Z,89357.94
2023-02-22T13:37:35.866Z,89354.69
2023-02-22T13:40:26.296Z,89349.88
2023-02-22T13:43:23.125Z,89358.59
2023-02-22T13:46:16.656Z,89348.72
2023-02-22T13:49:24.682Z,89342.22
2023-02-22T13:52:07.287Z,89344.00
2023-02-22T13:54:43.454Z,89337.00
2023-02-22T13:57:37.308Z,89344.50
2023-02-22T14:00:16.175Z,89347.09
2023-02-22T14:03:14.094Z,89346.13
2023-02-22T14:05:40.851Z,89349.50
2023-02-22T14:08:28.005Z,89350.53
2023-02-22T14:10:56.564Z,89344.25
2023-02-22T14:13:24.794Z,89351.22
2023-02-22T14:16:00.986Z,89347.81
2023-02-22T14:18:43.969Z,89355.63
2023-02-22T14:21:13.676Z,89340.41
2023-02-22T14:23:56.058Z,89335.31
2023-02-22T14:26:37.427Z,89341.38
2023-02-22T14:29:10.038Z,89335.78
2023-02-22T14:31:42.622Z,89348.88
2023-02-22T14:34:17.691Z,89335.53
2023-02-22T14:36:54.674Z,89339.91
2023-02-22T14:39:36.838Z,89343.06
2023-02-22T14:42:29.025Z,89331.91
2023-02-22T14:45:08.138Z,89338.94
2023-02-22T14:47:56.459Z,89338.72
2023-02-22T14:50:42.407Z,89339.69
2023-02-22T14:53:24.227Z,89342.59
2023-02-22T14:55:57.875Z,89345.25
2023-02-22T14:58:34.469Z,89348.38
2023-02-22T15:01:17.366Z,89344.25
2023-02-22T15:03:45.503Z,89348.31
2023-02-22T15:06:19.020Z,89344.41
2023-02-22T15:08:47.170Z,89342.69
2023-02-22T15:11:29.067Z,89345.81
2023-02-22T15:13:55.873Z,89342.84
2023-02-22T15:16:25.291Z,89347.69
2023-02-22T15:18:58.107Z,89353.28
2023-02-22T15:21:28.321Z,89349.16
2023-02-22T15:23:58.838Z,89350.25
2023-02-22T15:26:31.368Z,89350.00
2023-02-22T15:29:00.004Z,89345.53
2023-02-22T15:31:32.250Z,89349.16
2023-02-22T15:34:17.381Z,89348.34
2023-02-22T15:36:48.226Z,89349.78
2023-02-22T15:39:30.921Z,89351.94
2023-02-22T15:42:10.642Z,89348.00
2023-02-22T15:44:43.421Z,89353.50
2023-02-22T15:47:25.529Z,89353.47
2023-02-22T15:50:14.315Z,89354.22
2023-02-22T15:52:49.263Z,89359.47
2023-02-22T15:55:17.933Z,89355.50
2023-02-22T15:57:44.746Z,89355.97
2023-02-22T16:00:32.367Z,89363.94
2023-02-22T16:02:59.755Z,89363.28
2023-02-22T16:05:40.696Z,89356.81
2023-02-22T16:08:22.505Z,89359.94
2023-02-22T16:10:58.241Z,89356.56
2023-02-22T16:13:32.675Z,89365.41
2023-02-22T16:16:18.209Z,89357.78
2023-02-22T16:18:45.124Z,89360.66
2023-02-22T16:21:14.767Z,89347.31
2023-02-22T16:24:06.940Z,89374.19
2023-02-22T16:26:40.850Z,89357.22
2023-02-22T16:29:09.406Z,89358.63
2023-02-22T16:31:39.707Z,89363.97
2023-02-22T16:34:08.095Z,89375.00
2023-02-22T16:36:44.192Z,89367.50
2023-02-22T16:39:20.142Z,89372.09
2023-02-22T16:41:49.761Z,89363.31
2023-02-22T16:44:19.676Z,89367.38
2023-02-22T16:46:46.466Z,89370.78
2023-02-22T16:49:14.023Z,89375.81
2023-02-22T16:52:03.087Z,89370.91
2023-02-22T16:54:34.454Z,89367.06
2023-02-22T16:57:02.272Z,89372.63
2023-02-22T16:59:32.999Z,89374.09
2023-02-22T17:01:59.840Z,89365.91
2023-02-22T17:04:26.696Z,89368.38
2023-02-22T17:06:53.682Z,89367.38
2023-02-22T17:09:20.959Z,89365.91
2023-02-22T17:11:52.023Z,89377.28
2023-02-22T17:14:21.893Z,89368.50
2023-02-22T17:16:49.679Z,89371.44
2023-02-22T17:19:19.925Z,89363.41
2023-02-22T17:21:47.571Z,89365.78
2023-02-22T17:24:17.792Z,89366.38
2023-02-22T17:26:44.760Z,89365.59
2023-02-22T17:29:11.736Z,89363.13
2023-02-22T17:31:38.772Z,89372.75
2023-02-22T17:34:06.579Z,89364.06
2023-02-22T17:36:34.964Z,89360.69
2023-02-22T17:39:02.382Z,89364.53
2023-02-22T17:41:29.465Z,89362.75
2023-02-22T17:43:56.458Z,89364.81
2023-02-22T17:46:23.390Z,89358.41
2023-02-22T17:48:50.343Z,89353.50
2023-02-22T17:51:17.172Z,89355.34
2023-02-22T17:53:43.941Z,89356.50
2023-02-22T17:56:14.503Z,89364.13
2023-02-22T17:58:41.941Z,89362.38
2023-02-22T18:01:23.356Z,89361.09
2023-02-22T18:03:51.692Z,89354.81
2023-02-22T18:06:23.920Z,89360.91
2023-02-22T18:08:56.421Z,89362.91
2023-02-22T18:11:25.712Z,89369.69
2023-02-22T18:13:57.228Z,89367.97
2023-02-22T18:16:25.953Z,89369.34
2023-02-22T18:18:54.049Z,89368.81
2023-02-22T18:21:22.004Z,89366.34
2023-02-22T18:23:49.268Z,89364.09
2023-02-22T18:26:18.896Z,89361.34
2023-02-22T18:28:46.679Z,89361.59
2023-02-22T18:31:16.824Z,89372.31
2023-02-22T18:33:51.049Z,89366.19
2023-02-22T18:36:23.434Z,89361.44
2023-02-22T18:38:53.395Z,89389.69
2023-02-22T18:41:24.582Z,89360.59
2023-02-22T18:43:52.018Z,89378.03
2023-02-22T18:46:22.544Z,89356.53
2023-02-22T18:48:55.298Z,89364.50
2023-02-22T18:51:27.321Z,89361.47
2023-02-22T18:53:57.063Z,89374.72
2023-02-22T18:56:24.048Z,89363.44
2023-02-22T18:58:56.321Z,89364.38
2023-02-22T19:01:24.231Z,89378.03
2023-02-22T19:03:52.805Z,89370.31
2023-02-22T19:06:20.551Z,89368.94
2023-02-22T19:08:47.709Z,89377.63
2023-02-22T19:11:17.558Z,89375.75
2023-02-22T19:13:45.985Z,89376.69
2023-02-22T19:16:14.110Z,89369.28
2023-02-22T19:18:41.331Z,89376.69
2023-02-22T19:21:08.376Z,89379.34
2023-02-22T19:23:39.828Z,89379.44
2023-02-22T19:26:07.592Z,89383.94
2023-02-22T19:28:35.638Z,89378.72
2023-02-22T19:31:20.069Z,89386.78
2023-02-22T19:33:51.653Z,89384.13
2023-02-22T19:36:23.247Z,89388.88
2023-02-22T19:38:50.921Z,89385.16
2023-02-22T19:41:25.450Z,89389.44
2023-02-22T19:43:55.445Z,89386.34
2023-02-22T19:46:34.533Z,89392.38
2023-02-22T19:49:02.922Z,89391.38
2023-02-22T19:51:31.827Z,89395.56
2023-02-22T19:54:01.634Z,89386.50
2023-02-22T19:56:30.372Z,89391.63
2023-02-22T19:59:11.242Z,89398.50
2023-02-22T20:01:38.600Z,89392.53
2023-02-22T20:04:09.267Z,89395.22
2023-02-22T20:06:39.253Z,89390.72
2023-02-22T20:09:11.486Z,89392.47
2023-02-22T20:11:39.110Z,89390.00
2023-02-22T20:14:06.625Z,89391.28
2023-02-22T20:16:35.409Z,89388.44
2023-02-22T20:19:02.657Z,89394.03
2023-02-22T20:21:32.055Z,89393.19
2023-02-22T20:24:06.614Z,89402.53
2023-02-22T20:26:36.365Z,89396.13
2023-02-22T20:29:06.242Z,89393.91
2023-02-22T20:31:33.870Z,89396.44
2023-02-22T20:34:01.784Z,89394.09
2023-02-22T20:36:30.343Z,89405.06
2023-02-22T20:38:59.587Z,89394.47
2023-02-22T20:41:32.218Z,89393.09
2023-02-22T20:44:00.465Z,89395.19
2023-02-22T20:46:29.739Z,89395.56
2023-02-22T20:49:01.839Z,89402.78
2023-02-22T20:51:29.501Z,89398.13
2023-02-22T20:54:00.425Z,89399.22
2023-02-22T20:56:30.032Z,89392.47
2023-02-22T20:58:58.387Z,89394.81
2023-02-22T21:01:25.261Z,89386.88
2023-02-22T21:03:52.261Z,89388.97
2023-02-22T21:06:21.512Z,89393.34
2023-02-22T21:08:56.822Z,89393.72
2023-02-22T21:11:26.023Z,89387.69
2023-02-22T21:13:53.405Z,89386.75
2023-02-22T21:16:26.278Z,89391.13
2023-02-22T21:18:55.206Z,89395.69
2023-02-22T21:21:22.634Z,89393.06
2023-02-22T21:23:52.091Z,89390.16
2023-02-22T21:26:24.229Z,89397.25
2023-02-22T21:28:54.940Z,89390.88
2023-02-22T21:31:24.590Z,89387.03
2023-02-22T21:33:53.638Z,89395.25
2023-02-22T21:36:22.048Z,89395.66
2023-02-22T21:38:49.076Z,89398.47
2023-02-22T21:41:17.514Z,89401.06
2023-02-22T21:43:49.364Z,89392.66
2023-02-22T21:46:16.479Z,89390.81
2023-02-22T21:48:44.642Z,89394.66
2023-02-22T21:51:14.552Z,89388.81
2023-02-22T21:53:45.452Z,89390.94
2023-02-22T21:56:17.431Z,89398.03
2023-02-22T21:58:44.693Z,89393.06
2023-02-22T22:01:12.081Z,89387.88
2023-02-22T22:03:39.045Z,89394.75
2023-02-22T22:06:07.711Z,89395.03
2023-02-22T22:08:34.475Z,89395.34
2023-02-22T22:11:01.337Z,89390.00
2023-02-22T22:13:28.196Z,89402.81
2023-02-22T22:15:55.109Z,89409.06
2023-02-22T22:18:22.015Z,89402.03
2023-02-22T22:20:48.857Z,89401.84
2023-02-22T22:23:15.712Z,89407.13
2023-02-22T22:25:42.679Z,89406.13
2023-02-22T22:28:16.209Z,89413.97
2023-02-22T22:30:46.527Z,89411.59
2023-02-22T22:33:16.870Z,89401.00
2023-02-22T22:35:44.254Z,89406.91
2023-02-22T22:38:13.831Z,89406.03
2023-02-22T22:40:43.151Z,89404.53
2023-02-22T22:43:09.997Z,89401.63
2023-02-22T22:45:37.671Z,89401.75
2023-02-22T22:48:04.425Z,89400.28
2023-02-22T22:50:31.810Z,89398.50
2023-02-22T22:53:05.423Z,89404.25
2023-02-22T22:55:40.552Z,89401.75
2023-02-22T22:58:09.174Z,89400.72
2023-02-22T23:00:38.378Z,89400.03
2023-02-22T23:03:15.964Z,89401.97
2023-02-22T23:05:49.077Z,89407.16
2023-02-22T23:08:16.110Z,89404.69
2023-02-22T23:10:42.984Z,89398.53
2023-02-22T23:13:11.839Z,89408.38
2023-02-22T23:15:46.517Z,89409.56
2023-02-22T23:18:14.289Z,89406.19
2023-02-22T23:20:44.079Z,89401.31
2023-02-22T23:23:11.008Z,89405.84
2023-02-22T23:25:37.873Z,89404.13
2023-02-22T23:28:04.725Z,89405.38
2023-02-22T23:30:31.586Z,89405.63
2023-02-22T23:32:58.450Z,89413.53
2023-02-22T23:35:25.344Z,89402.19
2023-02-22T23:37:52.883Z,89407.31
2023-02-22T23:40:19.948Z,89407.31
2023-02-22T23:42:54.596Z,89408.22
2023-02-22T23:45:29.761Z,89408.50
2023-02-22T23:47:58.168Z,89413.97
2023-02-22T23:50:28.394Z,89411.59
2023-02-22T23:53:00.834Z,89415.28
2023-02-22T23:55:29.976Z,89413.38
2023-02-22T23:57:56.895Z,89407.19
